Tilton, NH (03276)

11:52 PM EDT on April 26, 2017 (GMT -0400)
Tilton NH | | Change Station

Elev 866 ft 43.47 °N, 71.61 °W | Updated 9 minutes ago

Overcast
Overcast
52.1 °F
Feels Like 52.1 °F
N
0.0
Wind Variable Wind from NNE

Today
High -- | Low -- °F
--% Chance of Precip.
Yesterday
High -- | Low -- °F
Precip. -- in
Pressure 29.94 in
Visibility 9.0 miles
Clouds Mostly Cloudy 600 ft
Overcast 1000 ft
Dew Point 33 °F
Humidity 48%
Rainfall 0.30 in
Snow Depth Not available.
5:46 AM 7:42 PM
New Moon, 1% visible
METAR KLCI 270256Z AUTO 08007KT 9SM BKN006 OVC010 12/11 A2988 RMK AO2 SLP139 T01170111 51003
Pressure 29.94 in
Visibility 9.0 miles
Clouds Mostly Cloudy 600 ft
Overcast 1000 ft
Dew Point 33 °F
Humidity 48%
Rainfall 0.30 in
Snow Depth Not available.
5:46 AM 7:42 PM
New Moon, 1% visible
METAR KLCI 270256Z AUTO 08007KT 9SM BKN006 OVC010 12/11 A2988 RMK AO2 SLP139 T01170111 51003

Get Severe Weather Alerts

Thanks for signing up!

Be on the lookout for a verification email in your inbox.

You'll start receiving the daily forecast at 8 AM.

×

10-Day Weather Forecast

Almanac

Astronomy

Apr. 26, 2017 Rise Set
Actual Time
Civil Twilight
Nautical Twilight
Astronomical Twilight
Moon
Length of Visible Light
Length of Day
Tomorrow will be .
, % of the Moon is Illuminated

Today's Extremes

State Highs State Lows

Community

WunderPhotos

WunderBlog® & News

Nearby

Air Quality

  Air Quality AQ Index Pollutant
Not available.

Snow Depth

Station Depth Elevation

Earthquake Activity

City Distance Mag. Time & Date
Minimum magnitude displayed is 2.5.

Coastal Water Temperatures

Place Temperature

Stations

Nearby Weather Stations

Station Location Temp. Windchill Dew Point Humidity Wind Precip. Elev Updated Type
                   

Watches & Warnings

There are currently no watches in effect.